DWN weather

CLOSED Downtown Airpark
Oklahoma City, Oklahoma, United States

Public forecast

Using degrees Fahrenheit for public forecast. Weather courtesy of forecast.io.

METAR (pilot weather report)

Closest report is Will Rogers World Airport, 4.7 nm (8.7 km) SW. Retrieved 2019/05/26 09:52 UTC (33 minutes ago):

KOKC 260952Z 14009KT 10SM SCT250 17/17 A3001 RMK AO2 SLP148 T01720172

TAF (pilot weather forecast)

Closest forecast is Will Rogers World Airport, 4.7 nm (8.7 km) SW. Retrieved 2019/05/26 06:27 UTC (4 hours ago):

TAF KOKC 260525Z 2606/2706 24014KT P6SM -SHRA BKN060 TEMPO 2606/2607 1SM TSRA BR OVC025CB FM260700 17014KT P6SM SCT012 BKN100 WS020/20040KT FM261400 18015G25KT P6SM SCT040 SCT250 TEMPO 2614/2617 BKN025